Due to severe server failure at the provider, not all demo sites are operational. Will take some days to rebuilt everything.

Demonstration site - Click on the  for more information

This is an optional block. Switch it on/off in your settings-file: $SITE['bannerTop'] = false; or $SITE['bannerBottom'] = false;

You can display ads, any other important text or photo’s using text / html or PHP code.

You can place one or more at the top and or bottom and it can all be different for content / size .



Visit our other weather sites:

Template documentation
and downloads

And another site



Nearby METAR Reports

   
EBAW - Antwerp
Updated: 18-05-2021 00:50
Light Showers, Rain, Mostly Cloudy  
Light Showers, Rain, Mostly Cloudy  
   Wind: SW 9.3 km/h
Wind: SW 9.3 km/h
Temperature: 11°C
Dew Point: 9°C
Humidity: 88%
Barometer: 1010 hPa
Clouds: Mostly Cloudy
Visibility: More than 10 km
Cloud details: Few Clouds 200 ft,
Partly Cloudy 2600 ft,
Mostly Cloudy 3200 ft
EBAW 172250Z AUTO 23005KT 9999 -SHRA FEW002/// SCT026/// BKN032/// 11/09 Q1010
EBLG - Liège
Updated: 18-05-2021 00:50
Mostly Cloudy  
Mostly Cloudy  
   Wind: SW 18.5 km/h
Wind: SW 18.5 km/h
Temperature: 9°C
Wind Chill: 6°C
Dew Point: 8°C
Humidity: 94%
Barometer: 1011 hPa
Clouds: Mostly Cloudy
Visibility: More than 10 km
Cloud details: Partly Cloudy 2000 ft,
Mostly Cloudy 4400 ft
EBLG 172250Z 22010KT 9999 SCT020 BKN044 09/08 Q1011 NOSIG
EBCV - Mons/Bergen
Updated: 18-05-2021 00:25
Few Clouds  
Few Clouds  
   Wind: SW 18.5 km/h
Wind: SW 18.5 km/h
Temperature: 10°C
Wind Chill: 8°C
Dew Point: 8°C
Humidity: 88%
Barometer: 1011 hPa
Clouds: Few Clouds
Visibility: More than 10 km
Cloud details: Few Clouds 4600 ft
EBCV 172225Z AUTO 23010KT 9999 FEW046/// 10/08 Q1011 BLU
EHBK - Maastricht
Updated: 18-05-2021 00:55
Light Drizzle, Mostly Cloudy  
Light Drizzle, Mostly Cloudy  
   Wind: SW 16.7 km/h
Wind: SW 16.7 km/h
Temperature: 10°C
Wind Chill: 8°C
Dew Point: 8°C
Humidity: 88%
Barometer: 1010 hPa
Clouds: Mostly Cloudy
Visibility: More than 10 km
Cloud details: Few Clouds 1500 ft,
Mostly Cloudy 4900 ft
EHBK 172255Z AUTO 22009KT 9999 -DZ FEW015CB BKN049 10/08 Q1010
ELLX - Luxemburg
Updated: 18-05-2021 00:50
Mostly Cloudy  
Mostly Cloudy  
   Wind: WSW 14.8 km/h
Wind: WSW 14.8 km/h
Temperature: 9°C
Wind Chill: 7°C
Dew Point: 8°C
Humidity: 94%
Barometer: 1012 hPa
Clouds: Mostly Cloudy
Visibility: More than 10 km
Cloud details: Partly Cloudy 800 ft,
Mostly Cloudy 3500 ft
ELLX 172250Z 25008KT 9999 SCT008 BKN035 09/08 Q1012 NOSIG
EBOS - Oostende
Updated: 18-05-2021 00:50
Few Clouds  
Few Clouds  
   Wind: SW 13 km/h
Wind: SW 13 km/h
Temperature: 10°C
Wind Chill: 8°C
Dew Point: 8°C
Humidity: 88%
Barometer: 1010 hPa
Clouds: Few Clouds
Visibility: More than 10 km
Cloud details: Few Clouds 2000 ft
EBOS 172250Z 23007KT 9999 FEW020 10/08 Q1010 NOSIG

Script developed by  Saratoga-weather.org Adapted for the template by  Weerstation Leuven

This is an optional block. Switch it on/off in your settings-file: $SITE['bannerTop'] = false; or $SITE['bannerBottom'] = false;

You can display ads, any other important text or photo’s using text / html or PHP code.

You can place one or more at the top and or bottom and it can all be different for content / size .